Time;durP1;ratioP1;P1;durP2;ratioP2;P2;SDS_P1;SDS_P2;PMS_P1;PMS_P2;Temp;Humidity;BMP_temperature;BMP_pressure;BME280_temperature;BME280_humidity;BME280_pressure;Samples;Min_cycle;Max_cycle;Signal;HPM_P1;HPM_P2
2022/08/24 00:01:43;;;;;;;3.03;0.20;;;;;;;28.13;42.09;101412.31;5052606;28;20029;-52
2022/08/24 00:04:11;;;;;;;1.05;0.40;;;;;;;28.29;42.23;101434.31;5052760;28;20087;-51
2022/08/24 00:06:40;;;;;;;0.38;0.30;;;;;;;28.32;42.11;101437.84;5052657;28;20025;-53
2022/08/24 00:09:09;;;;;;;0.77;0.25;;;;;;;28.15;42.12;101414.06;5051665;28;20119;-49
2022/08/24 00:11:36;;;;;;;1.25;0.30;;;;;;;28.26;42.56;101435.19;5052586;28;20108;-50
2022/08/24 00:14:05;;;;;;;1.90;0.50;;;;;;;28.25;42.50;101429.91;5052090;28;20444;-50
2022/08/24 00:16:34;;;;;;;1.27;0.30;;;;;;;28.27;42.42;101438.72;5052700;28;20029;-50
2022/08/24 00:19:02;;;;;;;1.73;0.40;;;;;;;28.24;42.44;101425.50;5052414;28;20105;-52
2022/08/24 00:21:32;;;;;;;1.73;0.40;;;;;;;28.24;42.24;101425.50;5052580;28;20040;-52
2022/08/24 00:24:00;;;;;;;0.52;0.28;;;;;;;28.24;42.25;101421.13;5052468;28;20028;-52
2022/08/24 00:26:29;;;;;;;3.17;0.38;;;;;;;28.23;42.41;101415.81;5052531;28;20029;-50
2022/08/24 00:28:58;;;;;;;1.70;0.28;;;;;;;28.19;42.35;101409.66;5052421;28;20086;-52
2022/08/24 00:31:27;;;;;;;2.13;0.40;;;;;;;28.24;42.52;101426.41;5052722;28;20475;-52
2022/08/24 00:33:55;;;;;;;0.30;0.30;;;;;;;28.24;42.29;101428.13;5056495;28;20028;-53
2022/08/24 00:36:24;;;;;;;0.50;0.32;;;;;;;28.15;42.25;101408.78;5056668;28;20020;-50
2022/08/24 00:38:54;;;;;;;1.95;0.47;;;;;;;28.15;42.42;101407.91;5056117;28;20047;-51
2022/08/24 00:41:23;;;;;;;2.10;0.30;;;;;;;28.07;42.23;101394.66;5056338;28;20427;-52
2022/08/24 00:43:54;;;;;;;2.15;0.88;;;;;;;28.17;42.36;101408.78;5038596;28;20040;-53
2022/08/24 00:46:44;;;;;;;0.85;0.40;;;;;;;28.19;42.32;101407.03;5056408;28;20025;-53
2022/08/24 00:49:41;;;;;;;1.27;0.28;;;;;;;28.14;42.39;101392.94;5016544;28;20029;-51
2022/08/24 00:52:24;;;;;;;2.17;0.50;;;;;;;28.18;42.36;101402.63;5035413;28;20399;-53
2022/08/24 00:54:57;;;;;;;0.73;0.40;;;;;;;28.17;42.33;101398.22;5056405;28;20036;-48
2022/08/24 00:57:28;;;;;;;1.92;0.50;;;;;;;28.15;42.24;101392.06;5056143;28;20041;-53
2022/08/24 01:00:01;;;;;;;1.67;0.57;;;;;;;28.16;42.38;101397.38;5038753;28;20050;-52
2022/08/24 01:02:34;;;;;;;1.20;0.40;;;;;;;28.18;42.44;101405.28;5038509;28;20021;-52
2022/08/24 01:05:06;;;;;;;0.47;0.32;;;;;;;28.14;42.40;101401.75;5038100;28;20533;-52
2022/08/24 01:07:36;;;;;;;2.92;0.65;;;;;;;28.14;42.54;101398.22;5038219;28;20563;-54
2022/08/24 01:10:10;;;;;;;0.70;0.30;;;;;;;28.10;42.33;101397.34;5055883;28;20029;-53
2022/08/24 01:12:41;;;;;;;1.02;0.20;;;;;;;28.16;42.48;101394.72;5038107;28;20021;-53
2022/08/24 01:15:11;;;;;;;0.52;0.22;;;;;;;28.12;42.31;101384.19;5038214;28;20492;-51
2022/08/24 01:20:26;;;;;;;2.97;0.75;;;;;;;28.13;42.28;101393.84;5052162;28;20098;-53
2022/08/24 01:23:19;;;;;;;1.17;0.47;;;;;;;28.11;42.59;101390.31;5055284;28;20108;-53
2022/08/24 01:25:47;;;;;;;1.20;0.50;;;;;;;28.12;42.38;101379.78;5049783;28;20499;-50
2022/08/24 01:28:18;;;;;;;1.00;0.30;;;;;;;28.11;42.57;101385.06;5055441;28;20067;-52
2022/08/24 01:30:47;;;;;;;0.90;0.28;;;;;;;28.08;42.29;101379.72;5055623;28;20033;-53
2022/08/24 01:33:35;;;;;;;1.23;0.45;;;;;;;27.99;42.60;101373.53;5055490;28;20052;-53
2022/08/24 01:36:15;;;;;;;1.13;0.40;;;;;;;28.03;42.60;101377.97;5055426;28;20532;-53
2022/08/24 01:38:42;;;;;;;0.68;0.30;;;;;;;28.13;42.40;101384.16;5055539;28;20067;-51
2022/08/24 01:41:10;;;;;;;1.15;0.47;;;;;;;28.08;42.38;101374.47;5055469;28;20364;-51
2022/08/24 01:43:37;;;;;;;1.40;0.30;;;;;;;28.12;42.25;101378.91;5020487;28;20159;-52
2022/08/24 01:46:04;;;;;;;1.52;0.70;;;;;;;28.03;42.55;101374.47;5021006;28;20075;-52
2022/08/24 01:48:31;;;;;;;0.80;0.40;;;;;;;28.04;42.33;101373.59;5055279;28;20028;-53
2022/08/24 01:50:59;;;;;;;1.10;0.40;;;;;;;28.05;42.48;101388.50;5055130;28;20032;-53
2022/08/24 01:53:29;;;;;;;2.58;0.30;;;;;;;28.05;42.40;101381.47;5037225;28;20056;-51
2022/08/24 01:55:58;;;;;;;1.27;0.38;;;;;;;28.04;42.41;101379.72;5054897;28;20049;-53
2022/08/24 01:58:26;;;;;;;1.27;0.50;;;;;;;28.05;42.34;101375.31;5037517;28;20039;-53
2022/08/24 02:00:55;;;;;;;0.68;0.30;;;;;;;27.98;42.61;101370.91;5055107;28;20029;-52
2022/08/24 02:03:23;;;;;;;0.77;0.30;;;;;;;28.03;42.41;101375.31;5037141;28;20029;-49
2022/08/24 02:05:52;;;;;;;3.00;0.30;;;;;;;28.02;42.25;101370.06;5054733;28;20029;-50
2022/08/24 02:08:22;;;;;;;1.05;0.40;;;;;;;27.95;42.61;101377.06;5054779;28;20422;-49
2022/08/24 02:10:50;;;;;;;2.78;0.60;;;;;;;28.01;42.40;101373.56;5054473;28;20124;-50
2022/08/24 02:13:18;;;;;;;2.10;0.55;;;;;;;28.01;42.43;101366.53;5054773;28;20115;-51
2022/08/24 02:15:47;;;;;;;2.35;0.40;;;;;;;27.81;42.69;101347.13;5054693;28;20029;-48
2022/08/24 02:18:15;;;;;;;2.47;0.50;;;;;;;27.95;42.46;101368.28;5054600;28;20033;-49
2022/08/24 02:20:44;;;;;;;0.32;0.30;;;;;;;27.89;42.86;101366.50;5054609;28;20095;-53
2022/08/24 02:23:13;;;;;;;2.70;0.50;;;;;;;27.87;42.54;101363.88;5054418;28;20033;-52
2022/08/24 02:25:42;;;;;;;1.05;0.45;;;;;;;27.95;42.33;101369.16;5036329;28;20032;-49
2022/08/24 02:28:09;;;;;;;1.15;0.50;;;;;;;27.90;42.50;101373.53;5054625;28;20098;-53
2022/08/24 02:30:37;;;;;;;0.95;0.30;;;;;;;27.92;42.43;101382.34;5054447;28;20033;-53
2022/08/24 02:33:05;;;;;;;2.08;0.47;;;;;;;27.89;42.60;101367.38;5054528;28;20036;-53
2022/08/24 02:35:34;;;;;;;0.88;0.40;;;;;;;27.89;42.44;101374.41;5054269;28;20094;-51
2022/08/24 02:38:02;;;;;;;1.05;0.40;;;;;;;27.86;42.69;101372.66;5054083;28;20416;-54
2022/08/24 02:40:31;;;;;;;1.23;0.50;;;;;;;27.86;42.48;101370.03;5054308;28;20025;-52
2022/08/24 02:42:59;;;;;;;0.40;0.28;;;;;;;27.91;42.47;101370.03;5054254;28;20124;-52
2022/08/24 02:45:28;;;;;;;0.55;0.30;;;;;;;27.84;42.42;101370.88;5054302;28;20021;-53
2022/08/24 02:47:57;;;;;;;1.10;0.30;;;;;;;27.83;42.52;101371.75;5053765;28;20036;-53
2022/08/24 02:50:26;;;;;;;1.13;0.28;;;;;;;27.80;42.57;101377.03;5053791;28;20033;-54
2022/08/24 02:52:55;;;;;;;0.65;0.32;;;;;;;27.65;42.65;101356.75;5053871;28;20131;-54
2022/08/24 02:55:22;;;;;;;0.70;0.25;;;;;;;27.75;42.76;101369.97;5053016;28;20538;-50
2022/08/24 02:57:51;;;;;;;1.35;0.40;;;;;;;27.78;42.57;101371.72;5054154;28;20338;-53
2022/08/24 03:00:21;;;;;;;2.05;0.25;;;;;;;27.78;42.69;101371.72;5053671;28;20082;-52
2022/08/24 03:02:49;;;;;;;2.95;0.30;;;;;;;27.75;42.65;101374.34;5053415;28;20040;-50
2022/08/24 03:05:18;;;;;;;1.35;0.40;;;;;;;27.77;42.65;101375.25;5053825;28;20482;-53
2022/08/24 03:07:47;;;;;;;2.72;0.55;;;;;;;27.71;42.61;101364.69;5053848;28;20028;-53
2022/08/24 03:10:16;;;;;;;1.00;0.55;;;;;;;27.66;42.78;101369.06;5053367;28;20033;-51
2022/08/24 03:12:45;;;;;;;0.57;0.38;;;;;;;27.70;42.72;101376.97;5053618;28;20024;-53
2022/08/24 03:15:14;;;;;;;1.05;0.35;;;;;;;27.68;42.50;101377.88;5053335;28;20515;-51
2022/08/24 03:17:42;;;;;;;1.00;0.38;;;;;;;27.68;42.81;101381.38;5053591;28;20034;-53
2022/08/24 03:20:14;;;;;;;1.25;0.43;;;;;;;27.68;42.76;101381.38;5052969;28;20391;-53
2022/08/24 03:22:43;;;;;;;2.63;0.40;;;;;;;27.64;42.62;101371.69;5053286;28;20021;-50
2022/08/24 03:25:14;;;;;;;1.42;0.55;;;;;;;27.64;42.57;101368.19;5053132;28;20025;-53
2022/08/24 03:27:42;;;;;;;1.35;0.52;;;;;;;27.72;42.59;101376.97;5035837;28;20028;-53
2022/08/24 03:30:12;;;;;;;1.40;0.43;;;;;;;27.66;42.63;101366.44;5053098;28;20111;-50
2022/08/24 03:32:41;;;;;;;0.50;0.30;;;;;;;27.62;42.85;101362.91;5053031;28;20029;-51
2022/08/24 03:35:11;;;;;;;1.85;0.50;;;;;;;27.61;42.92;101358.50;5052881;28;20024;-53
2022/08/24 03:37:39;;;;;;;1.65;0.30;;;;;;;27.59;43.01;101363.75;5035486;28;20430;-50
2022/08/24 03:40:10;;;;;;;0.75;0.38;;;;;;;27.55;43.14;101361.97;5053123;28;20025;-53
2022/08/24 03:42:39;;;;;;;2.53;0.40;;;;;;;27.56;43.06;101370.78;5052988;28;20029;-50
2022/08/24 03:45:08;;;;;;;2.10;0.40;;;;;;;27.51;42.98;101359.34;5052832;28;20143;-53
2022/08/24 03:47:36;;;;;;;0.98;0.40;;;;;;;27.57;42.95;101367.28;5052613;28;20067;-52
2022/08/24 03:50:05;;;;;;;1.50;0.40;;;;;;;27.51;42.91;101361.97;5052715;28;20025;-50
2022/08/24 03:52:34;;;;;;;1.17;0.32;;;;;;;27.52;42.93;101367.25;5052810;28;20032;-50
2022/08/24 03:55:04;;;;;;;2.47;0.30;;;;;;;27.52;42.94;101366.38;5052898;28;20054;-49
2022/08/24 03:57:33;;;;;;;9.00;0.73;;;;;;;27.56;42.44;101362.88;5052759;28;20073;-49
2022/08/24 04:00:04;;;;;;;1.35;0.57;;;;;;;27.52;42.96;101366.38;5052420;28;20037;-48
2022/08/24 04:02:32;;;;;;;3.35;0.90;;;;;;;27.46;42.72;101355.81;5052362;28;20036;-49
2022/08/24 04:05:01;;;;;;;0.93;0.30;;;;;;;27.49;42.84;101361.97;5052736;28;20384;-52
2022/08/24 04:07:30;;;;;;;6.13;0.70;;;;;;;27.48;42.84;101361.94;5052339;28;20384;-50
2022/08/24 04:09:58;;;;;;;4.15;0.40;;;;;;;27.44;42.82;101355.75;5052687;28;20033;-50
2022/08/24 04:12:28;;;;;;;1.08;0.35;;;;;;;27.47;42.85;101349.69;5052086;28;20033;-49
2022/08/24 04:14:56;;;;;;;2.58;0.28;;;;;;;27.46;42.77;101353.19;5052034;28;20017;-49
2022/08/24 04:17:24;;;;;;;2.40;0.22;;;;;;;27.40;43.00;101346.97;5052560;28;20075;-49
2022/08/24 04:19:56;;;;;;;3.50;0.60;;;;;;;27.42;42.91;101355.75;5052476;28;20087;-51
2022/08/24 04:22:28;;;;;;;0.40;0.15;;;;;;;27.42;42.96;101361.03;5052575;28;20025;-50
2022/08/24 04:24:57;;;;;;;2.38;0.60;;;;;;;27.41;42.86;101351.38;5052678;28;20021;-52
2022/08/24 04:27:25;;;;;;;2.63;0.60;;;;;;;27.38;42.90;101343.44;5035126;28;20036;-53
2022/08/24 04:29:54;;;;;;;2.25;0.43;;;;;;;27.43;42.90;101349.63;5052197;28;20484;-50
2022/08/24 04:32:22;;;;;;;1.25;0.25;;;;;;;27.39;42.84;101346.94;5052195;28;20392;-54
2022/08/24 04:34:50;;;;;;;0.82;0.30;;;;;;;27.39;42.85;101353.09;5052315;28;20492;-53
2022/08/24 04:37:19;;;;;;;2.45;0.47;;;;;;;27.41;42.67;101353.09;5052491;28;20083;-53
2022/08/24 04:39:48;;;;;;;0.85;0.20;;;;;;;27.36;42.68;101352.22;5052225;28;20424;-52
2022/08/24 04:42:16;;;;;;;1.65;0.60;;;;;;;27.38;42.64;101347.84;5034505;28;20082;-53
2022/08/24 04:44:45;;;;;;;6.60;0.38;;;;;;;27.32;42.77;101346.03;5051870;28;20404;-53
2022/08/24 04:47:13;;;;;;;1.05;0.30;;;;;;;27.37;42.75;101346.94;5051769;28;20033;-53
2022/08/24 04:49:42;;;;;;;1.75;0.40;;;;;;;27.36;42.62;101345.19;5052193;28;20431;-53
2022/08/24 04:52:10;;;;;;;0.70;0.20;;;;;;;27.40;42.58;101351.34;5052121;28;20116;-54
2022/08/24 04:54:39;;;;;;;0.57;0.38;;;;;;;27.31;42.80;101344.28;5052047;28;20507;-53
2022/08/24 04:57:07;;;;;;;1.58;0.40;;;;;;;27.27;42.77;101345.16;5051938;28;20496;-52
2022/08/24 04:59:36;;;;;;;1.02;0.38;;;;;;;27.26;42.75;101344.25;5052148;28;20104;-54
2022/08/24 05:02:04;;;;;;;1.35;0.40;;;;;;;27.30;42.66;101353.94;5052006;28;20036;-52
2022/08/24 05:04:33;;;;;;;1.65;0.47;;;;;;;27.23;42.83;101343.38;5034185;28;20087;-53
2022/08/24 05:07:01;;;;;;;2.53;0.25;;;;;;;27.26;42.85;101357.44;5052158;28;20047;-49
2022/08/24 05:09:30;;;;;;;3.60;0.47;;;;;;;27.21;42.89;101359.19;5051840;28;20037;-53
2022/08/24 05:11:58;;;;;;;3.17;1.02;;;;;;;27.21;42.92;101364.44;5051973;28;20460;-52
2022/08/24 05:14:27;;;;;;;2.22;0.70;;;;;;;27.21;42.92;101360.91;5051974;28;20040;-52
2022/08/24 05:16:56;;;;;;;2.28;0.60;;;;;;;27.17;43.01;101365.28;5052109;28;20135;-52
2022/08/24 05:19:25;;;;;;;0.50;0.30;;;;;;;27.20;42.97;101369.69;5037536;28;20029;-51
2022/08/24 05:21:54;;;;;;;1.95;0.50;;;;;;;27.20;42.97;101356.50;5037932;28;20325;-53
2022/08/24 05:24:23;;;;;;;0.82;0.40;;;;;;;27.20;42.92;101361.78;5055818;28;20017;-49
2022/08/24 05:26:51;;;;;;;1.33;0.50;;;;;;;27.23;42.85;101364.44;5055690;28;20391;-49
2022/08/24 05:29:20;;;;;;;2.97;0.50;;;;;;;27.23;42.90;101365.31;5055538;28;20033;-49
2022/08/24 05:31:49;;;;;;;1.73;0.50;;;;;;;27.10;42.94;101352.94;5055258;28;20036;-50
2022/08/24 05:34:17;;;;;;;3.33;0.40;;;;;;;27.14;43.00;101365.28;5055437;28;20025;-54
2022/08/24 05:36:46;;;;;;;0.95;0.40;;;;;;;27.14;43.02;101374.03;5055303;28;20116;-53
2022/08/24 05:39:15;;;;;;;3.25;0.50;;;;;;;27.15;43.07;101367.91;5055014;28;20033;-50
2022/08/24 05:41:45;;;;;;;1.30;0.38;;;;;;;27.16;43.14;101379.34;5055409;28;20033;-50
2022/08/24 05:44:16;;;;;;;2.45;0.57;;;;;;;27.20;42.98;101381.13;5055152;28;20468;-53
2022/08/24 05:46:45;;;;;;;1.88;0.52;;;;;;;27.20;43.00;101382.84;5055167;28;20033;-49
2022/08/24 05:49:13;;;;;;;3.08;0.30;;;;;;;27.19;43.09;101389.00;5037520;28;20025;-52
2022/08/24 05:51:42;;;;;;;4.53;0.57;;;;;;;27.18;43.01;101382.84;5054978;28;20035;-52
2022/08/24 05:54:12;;;;;;;0.77;0.35;;;;;;;27.14;43.19;101381.06;5054974;28;20036;-49
2022/08/24 05:56:41;;;;;;;1.48;0.60;;;;;;;27.06;43.37;101381.03;5055064;28;20060;-51
2022/08/24 05:59:09;;;;;;;2.40;0.60;;;;;;;27.12;43.04;101385.44;5054926;28;20045;-50
2022/08/24 06:01:38;;;;;;;2.25;0.50;;;;;;;27.12;43.20;101385.44;5054540;28;20037;-49
2022/08/24 06:04:07;;;;;;;4.70;1.17;;;;;;;27.16;43.15;101381.97;5054583;28;20025;-51
2022/08/24 06:06:36;;;;;;;1.20;0.40;;;;;;;27.15;43.19;101383.69;5055052;28;20108;-49
2022/08/24 06:09:04;;;;;;;2.17;0.20;;;;;;;27.12;43.19;101388.06;5054859;28;20029;-49
2022/08/24 06:11:36;;;;;;;1.42;0.30;;;;;;;27.13;43.14;101384.56;5054890;28;20451;-50
2022/08/24 06:14:08;;;;;;;1.98;0.50;;;;;;;27.09;43.32;101378.41;5054873;28;20068;-49
2022/08/24 06:16:37;;;;;;;0.63;0.40;;;;;;;27.15;43.35;101381.06;5054618;28;20484;-50
2022/08/24 06:19:07;;;;;;;1.38;0.50;;;;;;;27.11;43.38;101378.41;5054455;28;20033;-48
2022/08/24 06:21:36;;;;;;;1.52;0.60;;;;;;;27.09;43.05;101375.78;5036713;28;20499;-49
2022/08/24 06:24:05;;;;;;;1.17;0.45;;;;;;;27.10;43.47;101377.53;5054502;28;20072;-51
2022/08/24 06:29:22;;;;;;;4.10;0.38;;;;;;;27.04;43.65;101385.41;5045303;28;20041;-54
2022/08/24 06:31:51;;;;;;;3.17;0.60;;;;;;;27.03;43.66;101388.03;5036451;28;20060;-52
2022/08/24 06:34:20;;;;;;;4.07;0.40;;;;;;;27.05;43.61;101389.78;5054382;28;20057;-55
2022/08/24 06:36:49;;;;;;;2.15;0.35;;;;;;;27.06;43.73;101385.38;5054580;28;20450;-51
2022/08/24 06:39:17;;;;;;;3.40;0.30;;;;;;;27.00;43.84;101386.22;5053974;28;20511;-53
2022/08/24 06:41:46;;;;;;;7.60;0.47;;;;;;;27.03;43.70;101390.66;5054241;28;20108;-52
2022/08/24 06:44:15;;;;;;;2.45;0.68;;;;;;;27.03;43.70;101388.03;5053979;28;20392;-52
2022/08/24 06:46:44;;;;;;;1.17;0.30;;;;;;;27.02;43.67;101389.75;5036125;28;20086;-51
2022/08/24 06:49:12;;;;;;;2.45;0.60;;;;;;;27.09;43.56;101391.59;5053570;28;20055;-52
2022/08/24 06:51:41;;;;;;;5.07;0.57;;;;;;;27.12;43.56;101402.13;5054339;28;20086;-50
2022/08/24 06:54:10;;;;;;;7.95;0.63;;;;;;;27.13;43.56;101393.38;5053752;28;20029;-51
2022/08/24 06:56:39;;;;;;;5.07;0.40;;;;;;;27.12;43.60;101394.25;5053852;28;20069;-53
2022/08/24 06:59:27;;;;;;;3.85;0.40;;;;;;;27.07;43.64;101390.69;5035348;28;20388;-54
2022/08/24 07:01:56;;;;;;;2.80;0.88;;;;;;;27.17;43.39;101386.38;5053600;28;20059;-52
2022/08/24 07:04:26;;;;;;;1.60;0.43;;;;;;;27.21;43.53;101388.16;5036419;28;20036;-51
2022/08/24 07:06:55;;;;;;;1.15;0.70;;;;;;;27.26;43.46;101386.41;5053612;28;20025;-53
2022/08/24 07:09:30;;;;;;;6.05;0.70;;;;;;;27.24;43.66;101382.88;5053598;28;20095;-50
2022/08/24 07:11:59;;;;;;;1.98;0.50;;;;;;;27.30;43.60;101390.81;5053593;28;20494;-49
2022/08/24 07:14:28;;;;;;;5.85;0.60;;;;;;;27.33;43.46;101389.94;5036104;28;20491;-54
2022/08/24 07:16:56;;;;;;;3.90;0.60;;;;;;;27.25;43.66;101379.38;5053464;28;20028;-53
2022/08/24 07:19:25;;;;;;;4.05;0.60;;;;;;;27.30;43.44;101387.31;5053559;28;20391;-52
2022/08/24 07:21:57;;;;;;;1.58;0.60;;;;;;;27.31;43.69;101381.16;5053459;28;20033;-51
2022/08/24 07:24:26;;;;;;;3.40;0.60;;;;;;;27.29;43.50;101377.66;5053327;28;20032;-51
2022/08/24 07:26:54;;;;;;;2.97;0.50;;;;;;;27.28;43.59;101381.16;5053369;28;20025;-52
2022/08/24 07:29:23;;;;;;;2.80;0.30;;;;;;;27.32;43.78;101377.66;5053507;28;20024;-51
2022/08/24 07:31:50;;;;;;;1.67;0.40;;;;;;;27.40;43.61;101382.97;5053157;28;20399;-53
2022/08/24 07:34:20;;;;;;;2.35;0.70;;;;;;;27.28;44.44;101360.09;5035555;28;20602;-54
2022/08/24 07:36:49;;;;;;;6.15;0.63;;;;;;;27.44;44.12;101375.09;5053421;28;20074;-53
2022/08/24 07:39:18;;;;;;;5.72;0.68;;;;;;;27.52;44.01;101367.25;5053271;28;20570;-53
2022/08/24 07:41:46;;;;;;;4.28;0.30;;;;;;;27.58;43.91;101372.53;5052810;28;20434;-54
2022/08/24 07:44:15;;;;;;;0.85;0.20;;;;;;;27.58;43.88;101380.44;5053032;28;20036;-54
2022/08/24 07:46:43;;;;;;;1.52;0.40;;;;;;;27.63;43.77;101376.94;5052970;28;20052;-52
2022/08/24 07:49:12;;;;;;;2.58;0.40;;;;;;;27.62;43.98;101383.09;5053130;28;20151;-53
2022/08/24 07:51:41;;;;;;;1.17;0.20;;;;;;;27.65;44.14;101378.72;5053113;28;20126;-50
2022/08/24 07:54:10;;;;;;;1.67;0.40;;;;;;;27.64;44.09;101363.78;5052868;28;20031;-49
2022/08/24 07:56:39;;;;;;;4.72;0.50;;;;;;;27.64;44.25;101368.19;5052631;28;20055;-49
2022/08/24 07:59:07;;;;;;;2.53;0.50;;;;;;;27.64;44.22;101363.78;5053002;28;20060;-49
2022/08/24 08:01:36;;;;;;;2.08;0.40;;;;;;;27.69;44.16;101371.72;5052748;28;20032;-53
2022/08/24 08:04:05;;;;;;;5.95;0.65;;;;;;;27.66;44.32;101367.28;5052578;28;20376;-53
2022/08/24 08:06:33;;;;;;;3.03;0.50;;;;;;;27.69;44.18;101372.59;5052942;28;20112;-54
2022/08/24 08:09:03;;;;;;;0.98;0.30;;;;;;;27.77;43.92;101374.38;5052857;28;20539;-54
2022/08/24 08:11:31;;;;;;;2.13;0.40;;;;;;;27.75;44.24;101380.53;5034804;28;20066;-51
2022/08/24 08:14:00;;;;;;;1.77;0.30;;;;;;;27.81;43.69;101369.13;5052502;28;20025;-52
2022/08/24 08:16:29;;;;;;;3.25;0.50;;;;;;;27.86;43.97;101367.38;5052403;28;20028;-51
2022/08/24 08:18:57;;;;;;;1.98;0.32;;;;;;;27.84;43.69;101370.88;5052348;28;20146;-51
2022/08/24 08:24:15;;;;;;;2.33;0.40;;;;;;;27.93;43.49;101370.00;5045856;28;20456;-51
2022/08/24 08:26:45;;;;;;;4.13;0.98;;;;;;;27.91;43.98;101372.66;5052517;28;20032;-49
2022/08/24 08:29:14;;;;;;;2.03;0.32;;;;;;;27.98;43.85;101371.78;5052655;28;20400;-54
2022/08/24 08:31:43;;;;;;;1.73;0.40;;;;;;;28.05;43.39;101375.31;5052407;28;20055;-53
2022/08/24 08:34:12;;;;;;;2.90;0.30;;;;;;;28.10;43.47;101370.09;5034879;28;20040;-54
2022/08/24 08:36:41;;;;;;;1.58;0.50;;;;;;;28.10;43.58;101378.00;5052162;28;20025;-54
2022/08/24 08:39:12;;;;;;;2.53;0.47;;;;;;;28.15;43.53;101376.25;5052625;28;20090;-52
2022/08/24 08:42:03;;;;;;;0.38;0.20;;;;;;;28.17;43.65;101374.50;5052276;28;20492;-53
2022/08/24 08:44:39;;;;;;;2.15;0.32;;;;;;;28.23;43.42;101363.97;5052479;28;20075;-53
2022/08/24 08:47:46;;;;;;;1.80;0.35;;;;;;;28.24;43.23;101354.28;5052435;28;20419;-50
2022/08/24 08:50:14;;;;;;;2.33;0.40;;;;;;;28.31;43.11;101364.84;5042941;28;20571;-51
2022/08/24 08:53:21;;;;;;;1.08;0.30;;;;;;;28.24;43.69;101359.56;5053219;28;20021;-52
2022/08/24 08:56:14;;;;;;;5.57;0.50;;;;;;;28.30;43.38;101349.88;5055340;28;20404;-54
2022/08/24 08:59:01;;;;;;;1.17;0.30;;;;;;;28.37;43.32;101357.81;5053340;28;20098;-54
2022/08/24 09:01:49;;;;;;;1.50;0.40;;;;;;;28.41;42.95;101368.38;5038963;28;20037;-51
2022/08/24 09:04:43;;;;;;;1.85;0.38;;;;;;;28.39;43.38;101369.25;5056129;28;20395;-51
2022/08/24 09:07:38;;;;;;;0.57;0.40;;;;;;;28.42;42.90;101354.28;5034699;28;20480;-53
2022/08/24 09:10:40;;;;;;;2.60;0.50;;;;;;;28.43;42.90;101355.19;5055814;28;20387;-53
2022/08/24 09:13:12;;;;;;;1.02;0.40;;;;;;;28.53;43.00;101358.72;5049646;28;20183;-55
2022/08/24 09:15:41;;;;;;;1.58;0.57;;;;;;;28.56;42.93;101367.50;5055970;28;20017;-53
2022/08/24 09:18:13;;;;;;;0.47;0.22;;;;;;;28.53;43.02;101350.78;5055937;28;20053;-51
2022/08/24 09:20:50;;;;;;;3.15;0.30;;;;;;;28.53;43.05;101354.28;5055458;28;20029;-54
2022/08/24 09:23:27;;;;;;;0.90;0.40;;;;;;;28.53;43.02;101351.66;5038322;28;20025;-53
2022/08/24 09:26:09;;;;;;;0.80;0.32;;;;;;;28.49;43.14;101337.59;5055921;28;20025;-54
2022/08/24 09:28:44;;;;;;;2.35;0.63;;;;;;;28.57;43.24;101344.59;5055795;28;20103;-53
2022/08/24 09:31:32;;;;;;;1.70;0.55;;;;;;;28.57;43.20;101337.59;5055485;28;20500;-52
2022/08/24 09:34:26;;;;;;;2.88;0.70;;;;;;;28.54;43.34;101332.31;5049860;28;20036;-52
2022/08/24 09:36:59;;;;;;;2.83;0.40;;;;;;;28.63;43.20;101328.78;5037773;28;20159;-52
2022/08/24 09:39:37;;;;;;;1.85;0.65;;;;;;;28.67;43.11;101330.53;5037504;28;20032;-51
2022/08/24 09:42:25;;;;;;;2.22;0.80;;;;;;;28.63;43.16;101321.72;5055624;28;20036;-51
2022/08/24 09:45:31;;;;;;;1.23;0.40;;;;;;;28.72;42.90;101327.88;5055586;28;20021;-51
2022/08/24 09:48:38;;;;;;;4.60;0.50;;;;;;;28.73;42.99;101327.00;5054988;28;20029;-54
2022/08/24 09:51:44;;;;;;;2.13;0.70;;;;;;;28.75;43.08;101326.16;5047776;28;20048;-53
2022/08/24 09:54:50;;;;;;;1.27;0.50;;;;;;;28.76;43.22;101327.03;5053400;28;20043;-52
2022/08/24 09:57:19;;;;;;;2.75;0.80;;;;;;;28.79;43.00;101327.91;5051199;28;20051;-52
2022/08/24 09:59:58;;;;;;;1.85;0.40;;;;;;;28.78;43.26;101330.56;5054806;28;20029;-53
2022/08/24 10:02:53;;;;;;;1.45;0.60;;;;;;;28.76;43.36;101333.19;5055197;28;20044;-54
2022/08/24 10:05:24;;;;;;;1.67;0.70;;;;;;;28.81;43.16;101335.81;5054779;28;20032;-53
2022/08/24 10:08:12;;;;;;;2.58;0.38;;;;;;;28.78;43.07;101331.44;5055074;28;20064;-48
2022/08/24 10:11:00;;;;;;;0.85;0.50;;;;;;;28.83;43.20;101335.84;5048658;28;20495;-51
2022/08/24 10:13:50;;;;;;;0.77;0.32;;;;;;;28.78;43.07;101328.78;5049375;28;20083;-50
2022/08/24 10:16:29;;;;;;;1.98;0.50;;;;;;;28.77;43.27;101336.72;5037217;28;20116;-51
2022/08/24 10:19:01;;;;;;;1.50;0.50;;;;;;;28.80;43.25;101337.59;5037352;28;20025;-50
2022/08/24 10:21:41;;;;;;;1.33;0.45;;;;;;;28.76;43.36;101329.69;5037092;28;20431;-50
2022/08/24 10:24:44;;;;;;;2.20;0.82;;;;;;;28.72;43.20;101319.97;5021770;28;20078;-50
2022/08/24 10:27:20;;;;;;;2.65;0.50;;;;;;;28.85;43.13;101342.00;5054520;28;20025;-51
2022/08/24 10:30:08;;;;;;;3.65;0.52;;;;;;;28.87;42.96;101346.38;5036881;28;20591;-53
2022/08/24 10:33:14;;;;;;;0.90;0.52;;;;;;;28.91;42.91;101342.84;5048408;28;20063;-53
2022/08/24 10:36:02;;;;;;;1.13;0.45;;;;;;;28.92;42.92;101335.81;5047027;28;20119;-54
2022/08/24 10:41:37;;;;;;;2.67;0.60;;;;;;;28.88;42.92;101323.47;5050077;28;20063;-50
2022/08/24 10:44:07;;;;;;;2.75;0.80;;;;;;;28.90;43.10;101324.34;5036300;28;20543;-52
2022/08/24 10:46:51;;;;;;;1.05;0.52;;;;;;;28.86;43.38;101326.13;5054498;28;20025;-51
2022/08/24 10:49:48;;;;;;;1.83;0.40;;;;;;;28.92;43.21;101333.16;5054300;28;20029;-51
2022/08/24 10:52:26;;;;;;;5.40;0.85;;;;;;;28.97;43.05;101326.13;5046970;28;20060;-50
2022/08/24 10:54:54;;;;;;;1.17;0.70;;;;;;;29.05;42.70;101323.44;5066850;28;20029;-49
2022/08/24 10:57:31;;;;;;;1.27;0.40;;;;;;;28.94;43.05;101316.44;5028941;28;20046;-51
2022/08/24 11:00:08;;;;;;;1.42;0.40;;;;;;;28.95;43.05;101315.56;5025221;28;20029;-52
2022/08/24 11:02:38;;;;;;;1.65;0.52;;;;;;;29.05;43.08;101323.44;5032023;28;20108;-52
2022/08/24 11:05:08;;;;;;;3.28;0.60;;;;;;;29.03;43.01;101309.38;5022321;28;20108;-52
2022/08/24 11:07:55;;;;;;;3.65;0.55;;;;;;;29.17;42.36;101315.47;5022581;28;20024;-54
2022/08/24 11:10:29;;;;;;;2.08;0.60;;;;;;;29.31;41.94;101312.78;5020216;28;20026;-54
2022/08/24 11:12:56;;;;;;;1.65;0.50;;;;;;;29.30;41.79;101302.22;5024993;28;20116;-51
2022/08/24 11:15:27;;;;;;;1.77;0.30;;;;;;;29.40;41.95;101318.06;5018528;28;20029;-53
2022/08/24 11:17:57;;;;;;;2.58;0.60;;;;;;;29.26;41.90;101301.34;5023536;28;20032;-51
2022/08/24 11:20:25;;;;;;;1.33;0.30;;;;;;;29.18;42.26;101314.59;5032600;28;20053;-52
2022/08/24 11:23:06;;;;;;;1.67;0.60;;;;;;;29.28;41.99;101310.16;5027072;28;20087;-51
2022/08/24 11:25:37;;;;;;;0.95;0.50;;;;;;;29.17;42.10;101312.84;5024296;28;20127;-52
2022/08/24 11:28:26;;;;;;;2.13;0.40;;;;;;;29.03;42.00;101309.38;5022963;28;20554;-55
2022/08/24 11:30:53;;;;;;;1.48;0.50;;;;;;;28.95;42.12;101297.09;5027200;28;20033;-52
2022/08/24 11:33:35;;;;;;;0.73;0.45;;;;;;;29.08;42.35;101300.53;5024029;28;20389;-53
2022/08/24 11:36:14;;;;;;;1.40;0.40;;;;;;;29.08;42.22;101304.97;5024029;28;20182;-51
2022/08/24 11:38:42;;;;;;;1.27;0.60;;;;;;;29.04;42.35;101296.13;5029860;28;20116;-52
2022/08/24 11:41:11;;;;;;;2.22;0.82;;;;;;;29.17;42.54;101293.47;5022620;28;20037;-53
2022/08/24 11:43:56;;;;;;;3.38;0.73;;;;;;;29.14;42.29;101283.78;5021784;28;20022;-53
2022/08/24 11:46:45;;;;;;;0.40;0.30;;;;;;;29.14;42.81;101294.34;5021173;28;20451;-51
2022/08/24 11:49:21;;;;;;;5.22;0.70;;;;;;;29.12;42.88;101296.16;5004787;28;20115;-51
2022/08/24 11:52:03;;;;;;;3.20;0.90;;;;;;;29.15;43.02;101292.59;5020792;28;20503;-52
2022/08/24 11:54:42;;;;;;;1.20;0.57;;;;;;;29.00;43.09;101294.41;5018574;28;20077;-52
2022/08/24 11:57:27;;;;;;;0.45;0.30;;;;;;;29.06;43.46;101294.38;5022312;28;20034;-50
2022/08/24 12:00:11;;;;;;;2.30;0.80;;;;;;;29.15;43.06;101287.31;5025381;28;20029;-52
2022/08/24 12:02:42;;;;;;;1.88;0.63;;;;;;;29.20;42.94;101282.91;5023054;28;20030;-52